Time;durP1;ratioP1;P1;durP2;ratioP2;P2;SDS_P1;SDS_P2;PMS_P1;PMS_P2;Temp;Humidity;BMP_temperature;BMP_pressure;BME280_temperature;BME280_humidity;BME280_pressure;Samples;Min_cycle;Max_cycle;Signal;HPM_P1;HPM_P2
2022/07/17 00:00:12;;;;;;;;;7.00;7.00;;;;;22.94;39.97;101971.81;5065377;28;45400;-73
2022/07/17 00:02:38;;;;;;;;;6.00;6.00;;;;;22.91;40.29;101966.84;5065053;28;45328;-73
2022/07/17 00:05:04;;;;;;;;;7.00;7.00;;;;;22.88;40.16;101969.16;5065013;28;45280;-73
2022/07/17 00:07:29;;;;;;;;;6.00;6.00;;;;;22.83;40.23;101959.84;5065327;28;45326;-73
2022/07/17 00:09:54;;;;;;;;;5.67;5.67;;;;;22.78;40.01;101958.88;5064876;28;45483;-72
2022/07/17 00:12:20;;;;;;;;;5.00;5.00;;;;;22.76;40.48;101960.97;5065032;28;45370;-73
2022/07/17 00:14:45;;;;;;;;;6.67;6.00;;;;;22.72;40.24;101954.34;5065128;28;45359;-73
2022/07/17 00:17:10;;;;;;;;;5.33;5.33;;;;;22.66;39.93;101956.91;5071066;28;45489;-73
2022/07/17 00:19:36;;;;;;;;;6.00;6.00;;;;;22.63;40.35;101961.97;5057278;28;45958;-73
2022/07/17 00:22:02;;;;;;;;;7.67;6.33;;;;;22.62;40.53;101965.75;5064822;28;46548;-73
2022/07/17 00:24:27;;;;;;;;;6.00;6.00;;;;;22.59;40.85;101963.47;5065059;28;45347;-73
2022/07/17 00:26:53;;;;;;;;;5.67;5.67;;;;;22.57;40.75;101969.94;5065336;28;45378;-73
2022/07/17 00:29:19;;;;;;;;;5.00;5.00;;;;;22.59;41.20;101971.59;5046244;28;47041;-73
2022/07/17 00:31:44;;;;;;;;;5.67;5.67;;;;;22.54;40.99;101964.94;5047239;28;48244;-73
2022/07/17 00:34:10;;;;;;;;;6.00;4.33;;;;;22.51;40.62;101959.97;5065533;28;45319;-73
2022/07/17 00:36:35;;;;;;;;;6.00;6.00;;;;;22.46;40.93;101962.53;5065846;28;45351;-73
2022/07/17 00:39:01;;;;;;;;;4.33;3.67;;;;;22.39;41.02;101961.78;5065394;28;45405;-73
2022/07/17 00:41:26;;;;;;;;;5.00;5.00;;;;;22.31;41.68;101954.78;5065445;28;45652;-73
2022/07/17 00:43:52;;;;;;;;;5.33;5.33;;;;;22.29;41.40;101956.88;5062878;28;45220;-73
2022/07/17 00:46:17;;;;;;;;;5.00;5.00;;;;;22.23;41.51;101947.75;5062466;28;45200;-73
2022/07/17 00:48:43;;;;;;;;;6.00;6.00;;;;;22.17;41.60;101944.06;5044024;28;47137;-73
2022/07/17 00:51:09;;;;;;;;;6.00;6.00;;;;;22.11;41.77;101953.09;5043777;28;48234;-73
2022/07/17 00:53:36;;;;;;;;;6.33;5.67;;;;;22.12;41.89;101956.63;5059424;28;45162;-72
2022/07/17 00:56:03;;;;;;;;;6.67;5.67;;;;;22.15;41.53;101961.59;5043103;28;45293;-73
2022/07/17 00:58:29;;;;;;;;;6.67;6.67;;;;;22.11;41.79;101952.25;5061398;28;45241;-73
2022/07/17 01:00:56;;;;;;;;;5.00;4.00;;;;;22.06;42.21;101953.75;5061361;28;45262;-73
2022/07/17 01:03:24;;;;;;;;;4.33;4.33;;;;;22.06;41.76;101961.88;5061389;28;45383;-72
2022/07/17 01:05:50;;;;;;;;;6.33;6.00;;;;;22.01;41.94;101961.72;5061370;28;45326;-72
2022/07/17 01:08:16;;;;;;;;;4.67;4.67;;;;;21.97;41.88;101955.09;5042984;28;47218;-73
2022/07/17 01:10:41;;;;;;;;;4.67;4.67;;;;;21.98;41.94;101954.03;5060776;28;45479;-73
2022/07/17 01:13:07;;;;;;;;;6.00;5.33;;;;;21.95;42.29;101946.38;5061624;28;45284;-73
2022/07/17 01:15:36;;;;;;;;;6.00;6.00;;;;;21.90;42.64;101947.03;5061379;28;45305;-73
2022/07/17 01:18:05;;;;;;;;;6.67;6.67;;;;;21.86;42.91;101953.94;5060984;28;45382;-73
2022/07/17 01:20:30;;;;;;;;;6.00;6.00;;;;;21.81;42.46;101946.47;5060999;28;45486;-73
2022/07/17 01:22:57;;;;;;;;;5.00;5.00;;;;;21.74;42.95;101945.69;5058178;28;45275;-73
2022/07/17 01:25:23;;;;;;;;;5.00;5.00;;;;;21.72;42.53;101945.06;5042833;28;45433;-73
2022/07/17 01:27:49;;;;;;;;;5.00;5.00;;;;;21.66;42.70;101937.81;5060737;28;45437;-73
2022/07/17 01:30:14;;;;;;;;;7.33;6.00;;;;;21.66;42.94;101951.34;5061173;28;46534;-73
2022/07/17 01:32:41;;;;;;;;;5.67;5.67;;;;;21.63;43.14;101957.19;5060794;28;45275;-73
2022/07/17 01:35:08;;;;;;;;;5.33;5.33;;;;;21.62;43.45;101958.25;5046141;28;45297;-73
2022/07/17 01:37:35;;;;;;;;;5.33;5.33;;;;;21.62;43.25;101959.09;5060690;28;45477;-73
2022/07/17 01:40:00;;;;;;;;;6.00;6.00;;;;;21.54;43.27;101952.06;5060621;28;45235;-73
2022/07/17 01:42:27;;;;;;;;;8.00;6.00;;;;;21.52;42.98;101962.25;5060547;28;45328;-73
2022/07/17 01:44:54;;;;;;;;;7.00;5.00;;;;;21.49;43.76;101965.41;5056358;28;45302;-72
2022/07/17 01:47:20;;;;;;;;;5.67;5.67;;;;;21.43;43.70;101960.88;5060601;28;45349;-72
2022/07/17 01:49:51;;;;;;;;;6.33;5.67;;;;;21.42;43.81;101959.22;5060379;28;45354;-72
2022/07/17 01:52:17;;;;;;;;;7.00;7.00;;;;;21.36;43.99;101957.38;5060697;28;45372;-73
2022/07/17 01:54:44;;;;;;;;;6.00;5.33;;;;;21.30;43.87;101956.38;5060261;28;45260;-73
2022/07/17 01:57:10;;;;;;;;;6.00;6.00;;;;;21.30;43.92;101959.91;5042428;28;46463;-73
2022/07/17 01:59:37;;;;;;;;;4.67;4.67;;;;;21.25;43.71;101957.00;5051025;28;47511;-73
2022/07/17 02:02:04;;;;;;;;;5.00;5.00;;;;;21.19;43.65;101949.81;5060230;28;45295;-72
2022/07/17 02:04:30;;;;;;;;;5.00;5.00;;;;;21.22;44.09;101957.44;5042430;28;45309;-73
2022/07/17 02:06:55;;;;;;;;;6.00;5.67;;;;;21.17;44.49;101946.47;5060110;28;45190;-73
2022/07/17 02:09:22;;;;;;;;;8.00;6.00;;;;;21.21;44.20;101952.25;5060214;28;45379;-73
2022/07/17 02:11:47;;;;;;;;;6.67;6.00;;;;;21.20;43.84;101951.44;5059930;28;45348;-73
2022/07/17 02:14:12;;;;;;;;;4.67;4.67;;;;;21.16;44.32;101959.16;5058180;28;45300;-73
2022/07/17 02:16:38;;;;;;;;;5.33;5.33;;;;;21.15;44.48;101960.19;5050872;28;46385;-72
2022/07/17 02:19:03;;;;;;;;;6.33;5.33;;;;;21.12;44.38;101963.34;5062747;28;46290;-73
2022/07/17 02:21:29;;;;;;;;;6.00;6.00;;;;;21.10;44.61;101953.78;5042169;28;45371;-72
2022/07/17 02:23:54;;;;;;;;;4.00;4.00;;;;;21.09;44.70;101962.91;5054013;28;45311;-73
2022/07/17 02:26:19;;;;;;;;;6.33;5.33;;;;;21.02;44.74;101953.00;5060036;28;45669;-73
2022/07/17 02:28:45;;;;;;;;;4.67;4.67;;;;;20.98;44.96;101950.94;5060213;28;46215;-73
2022/07/17 02:31:10;;;;;;;;;6.33;6.33;;;;;20.99;45.25;101952.59;5059967;28;45285;-72
2022/07/17 02:33:35;;;;;;;;;8.33;8.33;;;;;20.93;45.17;101957.81;5060257;28;45389;-72
2022/07/17 02:36:01;;;;;;;;;5.67;5.67;;;;;20.88;45.67;101946.78;5041776;28;46023;-73
2022/07/17 02:38:27;;;;;;;;;4.33;4.33;;;;;20.81;44.99;101944.09;5059830;28;46454;-72
2022/07/17 02:40:52;;;;;;;;;7.00;7.00;;;;;20.77;45.29;101947.47;5059776;28;45312;-72
2022/07/17 02:43:18;;;;;;;;;5.33;5.33;;;;;20.75;45.57;101936.88;5060114;28;45647;-73
2022/07/17 02:45:43;;;;;;;;;6.00;4.67;;;;;20.71;45.63;101937.50;5059888;28;45262;-73
2022/07/17 02:48:09;;;;;;;;;4.00;4.00;;;;;20.67;45.99;101940.63;5059674;28;45571;-73
2022/07/17 02:50:34;;;;;;;;;6.00;6.00;;;;;20.63;45.49;101934.00;5059613;28;45359;-73
2022/07/17 02:52:59;;;;;;;;;6.67;5.33;;;;;20.62;46.14;101942.31;5059683;28;45349;-73
2022/07/17 02:55:25;;;;;;;;;8.33;7.00;;;;;20.63;46.36;101946.66;5059529;28;45414;-72
2022/07/17 02:57:50;;;;;;;;;6.67;5.67;;;;;20.58;46.06;101938.38;5052600;28;46977;-72
2022/07/17 03:00:17;;;;;;;;;6.67;6.67;;;;;20.52;46.63;101934.66;5059599;28;49519;-72
2022/07/17 03:02:43;;;;;;;;;5.00;5.00;;;;;20.51;46.66;101946.50;5059784;28;45418;-73
2022/07/17 03:05:09;;;;;;;;;6.67;6.67;;;;;20.46;46.89;101939.03;5059462;28;45292;-73
2022/07/17 03:07:35;;;;;;;;;5.00;5.00;;;;;20.42;46.58;101937.81;5058550;28;45431;-73
2022/07/17 03:10:01;;;;;;;;;4.00;4.00;;;;;20.44;46.82;101941.94;5059421;28;45307;-73
2022/07/17 03:12:26;;;;;;;;;5.00;5.00;;;;;20.41;46.63;101934.25;5041207;28;45310;-72
2022/07/17 03:14:51;;;;;;;;;5.33;5.33;;;;;20.40;46.79;101937.19;5041221;28;46043;-72
2022/07/17 03:17:17;;;;;;;;;5.00;5.00;;;;;20.37;46.77;101926.78;5070702;28;46791;-73
2022/07/17 03:19:42;;;;;;;;;5.00;4.00;;;;;20.34;47.18;101927.22;5059516;28;45214;-73
2022/07/17 03:22:08;;;;;;;;;4.00;4.00;;;;;20.27;47.17;101930.78;5052633;28;45320;-73
2022/07/17 03:24:33;;;;;;;;;4.33;4.33;;;;;20.22;47.34;101921.63;5059362;28;45395;-72
2022/07/17 03:26:58;;;;;;;;;6.67;5.00;;;;;20.18;47.51;101921.25;5058949;28;45220;-73
2022/07/17 03:29:24;;;;;;;;;5.00;5.00;;;;;20.14;47.45;101917.31;5059099;28;45410;-73
2022/07/17 03:31:49;;;;;;;;;5.33;5.33;;;;;20.08;47.62;101912.75;5059525;28;45252;-72
2022/07/17 03:34:15;;;;;;;;;6.33;5.67;;;;;20.05;47.48;101917.50;5058959;28;45615;-73
2022/07/17 03:36:40;;;;;;;;;4.00;4.00;;;;;20.06;47.62;101927.25;5059225;28;46601;-72
2022/07/17 03:39:06;;;;;;;;;5.00;5.00;;;;;20.08;47.84;101931.63;5058937;28;45582;-73
2022/07/17 03:41:32;;;;;;;;;4.00;4.00;;;;;20.09;47.98;101935.97;5059175;28;45281;-73
2022/07/17 03:43:57;;;;;;;;;6.00;6.00;;;;;20.04;47.61;101923.97;5049850;28;46130;-73
2022/07/17 03:46:22;;;;;;;;;5.00;5.00;;;;;20.00;47.75;101933.47;5040619;28;48316;-72
2022/07/17 03:48:48;;;;;;;;;5.33;5.33;;;;;19.99;48.01;101937.19;5058940;28;45438;-73
2022/07/17 03:51:13;;;;;;;;;7.67;5.67;;;;;19.94;47.67;101945.91;5059000;28;45497;-73
2022/07/17 03:53:39;;;;;;;;;6.33;6.33;;;;;19.92;48.01;101941.78;5058850;28;45339;-73
2022/07/17 03:56:04;;;;;;;;;5.67;5.67;;;;;19.86;48.23;101942.59;5058656;28;46337;-73
2022/07/17 03:58:30;;;;;;;;;6.00;6.00;;;;;19.83;48.38;101945.72;5043394;28;45360;-73
2022/07/17 04:00:56;;;;;;;;;6.00;6.00;;;;;19.81;48.48;101940.53;5059089;28;45338;-73
2022/07/17 04:03:21;;;;;;;;;5.00;4.33;;;;;19.76;48.38;101943.03;5037287;28;46138;-73
2022/07/17 04:05:47;;;;;;;;;6.67;6.67;;;;;19.67;48.62;101943.22;5044598;28;46764;-73
2022/07/17 04:08:15;;;;;;;;;6.33;4.67;;;;;19.66;48.60;101954.19;5058759;28;45263;-72
2022/07/17 04:10:40;;;;;;;;;7.00;7.00;;;;;19.64;48.55;101953.59;5055315;28;45339;-75
2022/07/17 04:13:06;;;;;;;;;5.00;5.00;;;;;19.64;48.49;101950.91;5058611;28;45451;-74
2022/07/17 04:15:49;;;;;;;;;4.00;4.00;;;;;19.65;48.72;101966.03;5053198;28;48011;-74
2022/07/17 04:18:20;;;;;;;;;6.67;6.67;;;;;19.67;48.39;101980.16;5058142;28;45347;-74
2022/07/17 04:20:46;;;;;;;;;7.00;6.00;;;;;19.65;48.52;101966.88;5044034;28;45313;-74
2022/07/17 04:23:11;;;;;;;;;4.00;4.00;;;;;19.66;49.01;101965.00;5061991;28;45670;-75
2022/07/17 04:25:36;;;;;;;;;4.33;4.33;;;;;19.67;48.77;101969.38;5043461;28;47378;-73
2022/07/17 04:28:02;;;;;;;;;5.00;5.00;;;;;19.66;48.83;101965.00;5040469;28;45376;-74
2022/07/17 04:30:27;;;;;;;;;5.00;5.00;;;;;19.68;49.13;101971.03;5055393;28;45285;-73
2022/07/17 04:32:53;;;;;;;;;4.00;4.00;;;;;19.61;49.57;101951.31;5061690;28;45434;-73
2022/07/17 04:35:18;;;;;;;;;4.00;3.00;;;;;19.59;49.73;101954.22;5043691;28;47003;-73
2022/07/17 04:37:43;;;;;;;;;5.00;5.00;;;;;19.57;49.30;101950.06;5043392;28;45249;-73
2022/07/17 04:40:10;;;;;;;;;4.00;4.00;;;;;19.57;49.33;101958.16;5061872;28;45265;-73
2022/07/17 04:42:35;;;;;;;;;6.00;4.67;;;;;19.54;48.94;101965.59;5061574;28;45552;-72
2022/07/17 04:45:00;;;;;;;;;7.00;7.00;;;;;19.55;49.34;101969.16;5046955;28;46918;-72
2022/07/17 04:47:26;;;;;;;;;6.33;6.33;;;;;19.56;49.52;101973.50;5061802;28;45394;-72
2022/07/17 04:49:51;;;;;;;;;5.00;5.00;;;;;19.59;48.95;101986.56;5059038;28;45656;-72
2022/07/17 04:52:16;;;;;;;;;5.33;5.33;;;;;19.60;49.47;101990.91;5061720;28;45243;-73
2022/07/17 04:54:42;;;;;;;;;7.00;7.00;;;;;19.60;49.57;101996.31;5061184;28;45974;-72
2022/07/17 04:57:07;;;;;;;;;6.67;5.33;;;;;19.59;49.53;101997.34;5061387;28;45339;-72
2022/07/17 04:59:32;;;;;;;;;4.33;4.33;;;;;19.58;49.19;101995.69;5061616;28;45421;-72
2022/07/17 05:01:58;;;;;;;;;6.00;4.67;;;;;19.59;49.61;102001.91;5061231;28;45233;-73
2022/07/17 05:04:23;;;;;;;;;5.00;5.00;;;;;19.64;49.79;102004.84;5061522;28;46283;-72
2022/07/17 05:06:48;;;;;;;;;7.00;7.00;;;;;19.63;49.03;101997.78;5061205;28;45339;-74
2022/07/17 05:09:14;;;;;;;;;6.00;4.33;;;;;19.65;49.48;102009.19;5061607;28;45349;-74
2022/07/17 05:11:39;;;;;;;;;6.00;6.00;;;;;19.66;48.92;102010.81;5060907;28;45668;-74
2022/07/17 05:14:05;;;;;;;;;6.00;5.00;;;;;19.68;49.59;102024.94;5061045;28;45454;-74
2022/07/17 05:16:30;;;;;;;;;4.00;4.00;;;;;19.67;49.22;102016.03;5068940;28;45439;-74
2022/07/17 05:18:55;;;;;;;;;5.00;5.00;;;;;19.71;49.43;102011.06;5059914;28;45402;-74
2022/07/17 05:21:21;;;;;;;;;5.00;5.00;;;;;19.71;48.90;102010.22;5043044;28;46322;-74
2022/07/17 05:23:46;;;;;;;;;4.00;4.00;;;;;19.68;48.65;102016.84;5061055;28;45365;-74
2022/07/17 05:26:11;;;;;;;;;6.00;6.00;;;;;19.69;48.87;102021.22;5046891;28;45321;-74
2022/07/17 05:28:37;;;;;;;;;5.00;5.00;;;;;19.68;48.72;102028.50;5061330;28;45249;-74
2022/07/17 05:31:02;;;;;;;;;4.00;4.00;;;;;19.70;48.66;102022.91;5060318;28;45280;-74
2022/07/17 05:33:28;;;;;;;;;5.00;5.00;;;;;19.65;48.86;102019.97;5060867;28;45412;-75
2022/07/17 05:35:53;;;;;;;;;5.00;5.00;;;;;19.68;49.16;102022.25;5060852;28;45275;-75
2022/07/17 05:38:18;;;;;;;;;7.00;6.00;;;;;19.71;49.47;102015.63;5047053;28;45364;-73
2022/07/17 05:40:44;;;;;;;;;4.33;4.33;;;;;19.74;48.84;102026.84;5060665;28;45391;-73
2022/07/17 05:43:09;;;;;;;;;5.00;5.00;;;;;19.79;48.96;102028.91;5060779;28;45286;-75
2022/07/17 05:45:34;;;;;;;;;3.33;3.33;;;;;19.79;48.47;102023.53;5060982;28;45489;-74
2022/07/17 05:48:00;;;;;;;;;5.33;5.33;;;;;19.80;48.80;102020.63;5060787;28;45254;-74
2022/07/17 05:50:25;;;;;;;;;4.00;4.00;;;;;19.81;49.00;102024.13;5060752;28;45336;-75
2022/07/17 05:52:51;;;;;;;;;4.00;4.00;;;;;19.86;48.61;102029.75;5060355;28;46187;-74
2022/07/17 05:55:16;;;;;;;;;5.33;5.00;;;;;19.93;48.88;102029.75;5060564;28;45511;-74
2022/07/17 05:57:41;;;;;;;;;5.00;5.00;;;;;19.95;48.33;102030.38;5060906;28;45475;-75
2022/07/17 06:00:07;;;;;;;;;3.67;3.67;;;;;19.99;48.24;102033.53;5060413;28;45169;-74
2022/07/17 06:02:32;;;;;;;;;5.33;5.33;;;;;19.99;48.57;102039.72;5060594;28;45377;-74
2022/07/17 06:04:58;;;;;;;;;4.00;4.00;;;;;20.00;47.98;102037.88;5052303;28;45303;-74
2022/07/17 06:07:23;;;;;;;;;5.00;5.00;;;;;20.00;48.27;102027.91;5060525;28;45241;-74
2022/07/17 06:09:48;;;;;;;;;4.00;4.00;;;;;20.02;48.42;102033.94;5060199;28;45268;-75
2022/07/17 06:12:14;;;;;;;;;4.67;4.00;;;;;20.01;48.30;102036.84;5060008;28;46295;-75
2022/07/17 06:14:39;;;;;;;;;5.00;5.00;;;;;20.08;48.36;102029.59;5060222;28;48646;-74
2022/07/17 06:17:04;;;;;;;;;5.00;5.00;;;;;20.14;48.85;102031.47;5071938;28;45311;-75
2022/07/17 06:19:30;;;;;;;;;4.00;4.00;;;;;20.18;48.11;102023.78;5045533;28;46146;-75
2022/07/17 06:21:55;;;;;;;;;6.00;6.00;;;;;20.24;48.02;102031.06;5060335;28;46397;-74
2022/07/17 06:24:20;;;;;;;;;4.67;4.67;;;;;20.28;48.13;102035.00;5059917;28;45316;-75
2022/07/17 06:26:46;;;;;;;;;3.67;3.67;;;;;20.28;48.00;102037.69;5042051;28;45443;-74
2022/07/17 06:29:11;;;;;;;;;5.67;5.67;;;;;20.31;48.21;102028.34;5060004;28;45505;-74
2022/07/17 06:31:36;;;;;;;;;6.00;5.67;;;;;20.39;48.07;102027.31;5060194;28;46185;-74
2022/07/17 06:34:02;;;;;;;;;4.00;4.00;;;;;20.45;48.51;102026.47;5059879;28;45344;-75
2022/07/17 06:36:27;;;;;;;;;5.00;5.00;;;;;20.54;48.51;102033.31;5060296;28;45279;-74
2022/07/17 06:38:52;;;;;;;;;4.67;4.67;;;;;20.67;48.42;102035.16;5041691;28;50043;-74
2022/07/17 06:41:17;;;;;;;;;2.67;2.67;;;;;20.78;48.29;102031.00;5056088;28;47323;-74
2022/07/17 06:43:43;;;;;;;;;4.33;4.00;;;;;20.87;47.58;102025.34;5059309;28;45404;-75
2022/07/17 06:46:08;;;;;;;;;3.00;3.00;;;;;20.97;47.48;102033.03;5060100;28;45295;-74
2022/07/17 06:48:34;;;;;;;;;6.00;4.67;;;;;21.06;47.73;102027.19;5059754;28;45350;-74
2022/07/17 06:50:59;;;;;;;;;4.67;4.67;;;;;21.15;47.53;102032.34;5059518;28;46317;-74
2022/07/17 06:53:24;;;;;;;;;3.00;3.00;;;;;21.24;47.04;102031.06;5059846;28;45340;-73
2022/07/17 06:55:49;;;;;;;;;6.00;5.00;;;;;21.31;46.70;102031.84;5059708;28;45324;-72
2022/07/17 06:58:15;;;;;;;;;4.00;4.00;;;;;21.42;46.44;102029.50;5059512;28;45637;-72
2022/07/17 07:00:40;;;;;;;;;4.00;4.00;;;;;;;;5059670;28;46196;-72
2022/07/17 07:03:06;;;;;;;;;3.00;3.00;;;;;21.58;45.81;102039.00;5059859;28;45339;-72
2022/07/17 07:05:31;;;;;;;;;4.00;4.00;;;;;21.67;45.96;102034.19;5041402;28;45396;-73
2022/07/17 07:07:57;;;;;;;;;3.67;3.00;;;;;21.77;45.76;102031.00;5047829;28;45992;-72
2022/07/17 07:10:22;;;;;;;;;6.00;4.33;;;;;21.83;46.02;102024.72;5058983;28;45363;-73
2022/07/17 07:12:47;;;;;;;;;4.00;4.00;;;;;21.93;45.46;102024.22;5045250;28;45276;-74
2022/07/17 07:15:14;;;;;;;;;4.67;4.67;;;;;22.00;45.36;102016.88;5041450;28;45483;-73
2022/07/17 07:17:40;;;;;;;;;3.67;3.67;;;;;22.13;44.96;102032.19;5052493;28;46480;-73
2022/07/17 07:20:06;;;;;;;;;3.00;3.00;;;;;22.12;44.98;102011.56;5059302;28;45539;-73
2022/07/17 07:22:32;;;;;;;;;4.67;4.33;;;;;22.25;44.38;102028.75;5059038;28;45338;-74
2022/07/17 07:24:58;;;;;;;;;5.00;5.00;;;;;22.30;44.87;102018.91;5059398;28;45211;-73
2022/07/17 07:27:23;;;;;;;;;5.00;5.00;;;;;22.39;44.49;102011.34;5059204;28;45152;-73
2022/07/17 07:29:49;;;;;;;;;4.00;4.00;;;;;22.46;44.50;102008.56;5059391;28;46328;-74
2022/07/17 07:32:15;;;;;;;;;4.00;4.00;;;;;22.60;44.23;102022.00;5041381;28;46029;-74
2022/07/17 07:34:40;;;;;;;;;4.00;4.00;;;;;22.68;44.07;102021.69;5054273;28;45456;-74
2022/07/17 07:37:05;;;;;;;;;6.00;4.33;;;;;22.77;44.03;102022.22;5058803;28;45328;-73
2022/07/17 07:39:31;;;;;;;;;6.33;5.67;;;;;22.86;43.53;102017.38;5058637;28;45448;-74
2022/07/17 07:41:56;;;;;;;;;4.67;4.67;;;;;22.92;43.26;102022.69;5049284;28;45364;-74
2022/07/17 07:44:22;;;;;;;;;3.33;3.33;;;;;23.00;43.22;102018.84;5059101;28;45289;-74
2022/07/17 07:46:47;;;;;;;;;4.67;4.67;;;;;23.08;43.41;102018.53;5058814;28;45390;-74
2022/07/17 07:49:12;;;;;;;;;3.33;3.33;;;;;23.19;42.80;102016.09;5058616;28;45452;-74
2022/07/17 07:51:38;;;;;;;;;3.33;3.33;;;;;23.26;42.96;102019.56;5058952;28;45400;-73
2022/07/17 07:54:03;;;;;;;;;4.00;4.00;;;;;23.30;42.39;102015.34;5053092;28;45344;-73
2022/07/17 07:56:28;;;;;;;;;4.00;4.00;;;;;23.44;42.54;102032.28;5044021;28;47190;-73
2022/07/17 07:58:54;;;;;;;;;4.00;4.00;;;;;23.56;41.95;102018.75;5062358;28;46553;-73
2022/07/17 08:01:19;;;;;;;;;5.00;5.00;;;;;23.60;42.33;102015.56;5050286;28;45833;-74
2022/07/17 08:03:45;;;;;;;;;4.33;4.00;;;;;23.73;42.13;102018.09;5058191;28;45577;-73
2022/07/17 08:06:10;;;;;;;;;4.33;4.33;;;;;23.84;41.15;102027.31;5035054;28;45784;-74
2022/07/17 08:08:35;;;;;;;;;5.00;5.00;;;;;23.94;41.80;102024.03;5056970;28;46360;-74
2022/07/17 08:11:01;;;;;;;;;4.67;4.67;;;;;23.99;41.58;102021.44;5061853;28;45391;-73
2022/07/17 08:13:26;;;;;;;;;3.33;3.00;;;;;24.07;40.80;102014.84;5061830;28;45490;-74
2022/07/17 08:15:52;;;;;;;;;5.00;4.00;;;;;24.22;40.90;102019.84;5064106;28;45348;-73
2022/07/17 08:18:17;;;;;;;;;5.00;5.00;;;;;24.24;40.99;102023.13;5060772;28;45379;-74
2022/07/17 08:20:43;;;;;;;;;5.67;5.67;;;;;24.30;40.95;102011.34;5058443;28;45290;-73
2022/07/17 08:23:08;;;;;;;;;5.00;3.00;;;;;24.38;40.23;102006.59;5043952;28;45283;-73
2022/07/17 08:25:35;;;;;;;;;2.67;2.67;;;;;24.48;40.60;102014.16;5061179;28;45364;-74
2022/07/17 08:28:00;;;;;;;;;4.00;4.00;;;;;24.58;40.46;102015.19;5048267;28;45531;-74
2022/07/17 08:30:25;;;;;;;;;4.00;4.00;;;;;24.69;40.37;102012.72;5061895;28;45418;-74
2022/07/17 08:32:51;;;;;;;;;4.33;4.00;;;;;24.79;40.55;102021.09;5061713;28;45561;-75
2022/07/17 08:35:16;;;;;;;;;6.00;4.00;;;;;24.90;40.33;102018.63;5061793;28;45216;-73
2022/07/17 08:37:52;;;;;;;;;3.00;3.00;;;;;25.05;40.57;102028.97;5059084;28;45347;-73
2022/07/17 08:40:30;;;;;;;;;3.33;3.33;;;;;25.11;39.68;102016.31;5051147;28;45345;-73
2022/07/17 08:42:57;;;;;;;;;7.67;7.00;;;;;25.11;39.93;102008.94;5029657;28;45367;-74
2022/07/17 08:45:23;;;;;;;;;5.33;5.33;;;;;25.20;39.39;102015.66;5051976;28;45260;-73
2022/07/17 08:47:50;;;;;;;;;4.67;4.67;;;;;25.28;39.17;102019.06;5053704;28;47202;-74
2022/07/17 08:50:23;;;;;;;;;6.00;6.00;;;;;25.30;39.46;102020.50;5035340;28;45997;-74
2022/07/17 08:52:50;;;;;;;;;4.00;4.00;;;;;25.36;38.57;102015.13;5041542;28;45301;-74
2022/07/17 08:55:16;;;;;;;;;4.00;4.00;;;;;25.47;39.07;102011.53;5048341;28;45290;-74
2022/07/17 08:57:44;;;;;;;;;5.33;5.00;;;;;25.55;38.78;102018.47;5043318;28;47361;-74
2022/07/17 09:00:12;;;;;;;;;5.33;5.33;;;;;25.66;38.97;102019.50;5042954;28;45374;-73
2022/07/17 09:02:39;;;;;;;;;4.00;4.00;;;;;25.75;38.24;102009.03;5061551;28;45370;-74
2022/07/17 09:05:05;;;;;;;;;4.67;4.00;;;;;25.77;37.53;102004.16;5060106;28;45468;-73
2022/07/17 09:07:32;;;;;;;;;4.00;4.00;;;;;25.90;38.32;102009.28;5061210;28;45573;-73
2022/07/17 09:09:57;;;;;;;;;2.67;2.67;;;;;25.99;38.00;102006.13;5042301;28;46032;-73
2022/07/17 09:12:28;;;;;;;;;2.33;2.33;;;;;26.09;37.78;102001.69;5060580;28;45331;-73
2022/07/17 09:14:55;;;;;;;;;4.00;4.00;;;;;26.13;37.83;101987.56;5060784;28;45538;-73
2022/07/17 09:17:22;;;;;;;;;4.00;4.00;;;;;26.23;37.80;101995.88;5071895;28;45493;-72
2022/07/17 09:19:47;;;;;;;;;3.67;3.67;;;;;26.33;36.96;101992.50;5060574;28;45485;-73
2022/07/17 09:22:15;;;;;;;;;3.33;3.33;;;;;26.45;37.34;102000.56;5055083;28;45409;-73
2022/07/17 09:24:53;;;;;;;;;3.00;3.00;;;;;26.51;36.67;101996.84;5047237;28;46308;-73
2022/07/17 09:27:24;;;;;;;;;6.00;4.67;;;;;26.65;36.69;101997.28;5060926;28;46073;-72
2022/07/17 09:29:53;;;;;;;;;5.00;4.67;;;;;26.74;35.58;102000.41;5048068;28;45368;-72
2022/07/17 09:32:21;;;;;;;;;4.00;3.00;;;;;26.82;36.24;101993.69;5061052;28;45345;-73
2022/07/17 09:34:53;;;;;;;;;4.67;4.67;;;;;26.90;36.32;102001.41;5057822;28;45524;-73
2022/07/17 09:37:21;;;;;;;;;3.33;3.33;;;;;26.93;36.24;101994.59;5048335;28;48287;-73
2022/07/17 09:39:46;;;;;;;;;4.00;4.00;;;;;27.05;35.31;101997.22;5042008;28;45194;-73
2022/07/17 09:42:32;;;;;;;;;4.00;3.00;;;;;27.15;35.87;101999.25;5060716;28;45218;-73
2022/07/17 09:45:08;;;;;;;;;4.67;4.00;;;;;27.19;35.88;101994.91;5060789;28;45280;-73
2022/07/17 09:47:35;;;;;;;;;4.00;4.00;;;;;27.35;35.42;102004.06;5060369;28;45922;-73
2022/07/17 09:50:02;;;;;;;;;5.00;5.00;;;;;27.41;35.24;102005.78;5042137;28;45341;-73
2022/07/17 09:52:30;;;;;;;;;3.67;3.67;;;;;27.50;34.47;102006.13;5054353;28;45460;-73
2022/07/17 09:54:57;;;;;;;;;3.67;3.67;;;;;27.59;34.42;102004.56;5052751;28;45263;-73
2022/07/17 09:57:30;;;;;;;;;5.00;3.67;;;;;27.70;34.32;102012.88;5053783;28;45313;-73
2022/07/17 09:59:59;;;;;;;;;3.67;3.00;;;;;27.79;34.02;102005.88;5042359;28;45303;-73
2022/07/17 10:02:24;;;;;;;;;3.67;3.67;;;;;27.86;34.41;101997.44;5040559;28;45313;-72
2022/07/17 10:04:51;;;;;;;;;4.67;4.67;;;;;27.95;33.90;102003.25;5052181;28;45634;-72
2022/07/17 10:07:17;;;;;;;;;3.33;3.33;;;;;28.00;33.30;102000.53;5057127;28;48608;-74
2022/07/17 10:09:43;;;;;;;;;4.67;4.67;;;;;28.11;33.66;102010.44;5059668;28;45418;-73
2022/07/17 10:12:09;;;;;;;;;4.00;4.00;;;;;28.23;33.21;102002.03;5060383;28;45363;-73
2022/07/17 10:14:35;;;;;;;;;3.67;3.67;;;;;28.31;32.47;102005.41;5060405;28;45307;-73
2022/07/17 10:17:23;;;;;;;;;2.33;2.33;;;;;28.44;32.68;102009.56;5071796;28;46452;-72
2022/07/17 10:19:57;;;;;;;;;4.00;4.00;;;;;28.57;31.99;102005.53;5037693;28;45338;-73
2022/07/17 10:22:24;;;;;;;;;3.67;3.67;;;;;28.71;31.86;102000.41;5042097;28;45407;-74
2022/07/17 10:24:52;;;;;;;;;7.67;7.67;;;;;28.85;31.51;102006.22;5059663;28;47341;-74
2022/07/17 10:27:29;;;;;;;;;4.00;4.00;;;;;28.96;31.30;102001.59;5060048;28;45312;-74
2022/07/17 10:30:09;;;;;;;;;4.67;3.33;;;;;29.10;31.64;102010.13;5041975;28;45455;-74
2022/07/17 10:32:36;;;;;;;;;3.33;3.33;;;;;29.21;30.62;102009.03;5060027;28;45276;-74
2022/07/17 10:35:10;;;;;;;;;2.33;2.33;;;;;29.31;31.29;102008.25;5060056;28;45244;-74
2022/07/17 10:37:35;;;;;;;;;4.00;4.00;;;;;29.45;30.20;102004.97;5052834;28;46902;-74
2022/07/17 10:40:06;;;;;;;;;3.00;3.00;;;;;29.58;30.46;102001.72;5059889;28;45273;-73
2022/07/17 10:42:38;;;;;;;;;3.67;3.67;;;;;29.82;29.46;102016.78;5039393;28;45373;-73
2022/07/17 10:45:09;;;;;;;;;3.00;3.00;;;;;29.96;29.37;102008.81;5039088;28;46853;-73
2022/07/17 10:47:51;;;;;;;;;3.00;3.00;;;;;30.07;29.19;102010.44;5056935;28;46390;-74
2022/07/17 10:50:19;;;;;;;;;2.33;2.33;;;;;30.24;28.63;102010.16;5048320;28;45498;-73
2022/07/17 10:52:55;;;;;;;;;3.00;3.00;;;;;30.40;28.03;102004.63;5059447;28;45394;-73
2022/07/17 10:55:21;;;;;;;;;2.33;2.33;;;;;30.59;28.43;102007.56;5058995;28;45312;-73
2022/07/17 10:57:48;;;;;;;;;4.00;4.00;;;;;30.73;27.77;102006.94;5040696;28;46676;-73
2022/07/17 11:00:15;;;;;;;;;2.00;2.00;;;;;30.91;27.36;102008.25;5047304;28;45274;-73
2022/07/17 11:02:41;;;;;;;;;2.33;2.33;;;;;31.04;27.63;102004.09;5046775;28;45549;-73
2022/07/17 11:05:08;;;;;;;;;5.00;4.00;;;;;31.17;27.31;102010.03;5043268;28;45506;-73
2022/07/17 11:07:33;;;;;;;;;2.33;2.00;;;;;31.34;26.68;102010.44;5041518;28;45434;-74
2022/07/17 11:10:00;;;;;;;;;2.00;2.00;;;;;31.54;26.24;102007.88;5048217;28;45350;-74
2022/07/17 11:12:35;;;;;;;;;1.67;1.67;;;;;31.69;26.02;102004.16;5041872;28;45251;-74
2022/07/17 11:15:04;;;;;;;;;2.00;2.00;;;;;31.88;26.44;102013.31;5041852;28;45335;-74
2022/07/17 11:17:29;;;;;;;;;2.00;2.00;;;;;31.99;25.90;102007.75;5034340;28;47165;-75
2022/07/17 11:19:58;;;;;;;;;3.00;3.00;;;;;32.11;25.92;102004.63;5046427;28;45325;-74
2022/07/17 11:22:29;;;;;;;;;3.00;3.00;;;;;32.23;25.96;102001.47;5030623;28;45277;-74